Time;durP1;ratioP1;P1;durP2;ratioP2;P2;SDS_P1;SDS_P2;PMS_P1;PMS_P2;Temp;Humidity;BMP_temperature;BMP_pressure;BME280_temperature;BME280_humidity;BME280_pressure;Samples;Min_cycle;Max_cycle;Signal;HPM_P1;HPM_P2
2023/09/04 00:01:07;;;;;;;1.50;1.43;;;;;;;21.16;100.00;99333.06;5112966;28;20199;-75
2023/09/04 00:03:34;;;;;;;1.50;1.50;;;;;;;21.23;100.00;99334.25;5112904;28;20680;-75
2023/09/04 00:06:01;;;;;;;1.40;1.40;;;;;;;21.34;100.00;99336.91;5113168;28;20191;-75
2023/09/04 00:08:29;;;;;;;1.03;1.03;;;;;;;21.46;100.00;99338.56;5111713;28;20305;-75
2023/09/04 00:10:56;;;;;;;1.17;1.17;;;;;;;21.54;100.00;99345.81;5113460;28;20199;-75
2023/09/04 00:13:23;;;;;;;1.30;1.30;;;;;;;21.61;100.00;99339.19;5113256;28;20197;-74
2023/09/04 00:15:53;;;;;;;1.37;1.37;;;;;;;21.66;100.00;99327.47;5113877;28;20191;-74
2023/09/04 00:18:20;;;;;;;1.73;1.57;;;;;;;21.72;100.00;99321.75;5122032;27;20201;-75
2023/09/04 00:20:48;;;;;;;1.37;1.27;;;;;;;21.67;100.00;99323.91;5133773;27;20587;-74
2023/09/04 00:23:15;;;;;;;1.10;1.10;;;;;;;21.49;100.00;99319.28;5118479;27;20211;-74
2023/09/04 00:25:43;;;;;;;1.70;1.60;;;;;;;21.47;100.00;99316.78;5124065;27;20723;-75
2023/09/04 00:28:10;;;;;;;1.10;1.10;;;;;;;21.57;100.00;99320.34;5133480;27;20225;-75
2023/09/04 00:30:37;;;;;;;1.40;1.40;;;;;;;21.57;100.00;99314.28;5133377;27;20204;-75
2023/09/04 00:33:04;;;;;;;1.60;1.60;;;;;;;21.57;100.00;99317.72;5133561;27;20729;-75
2023/09/04 00:35:31;;;;;;;1.67;1.57;;;;;;;21.60;100.00;99311.44;5112594;28;20198;-75
2023/09/04 00:37:58;;;;;;;1.63;1.60;;;;;;;21.66;100.00;99314.41;5113155;28;20198;-75
2023/09/04 00:40:25;;;;;;;1.83;1.73;;;;;;;21.73;100.00;99320.81;5112588;28;20194;-76
2023/09/04 00:42:53;;;;;;;1.40;1.40;;;;;;;21.82;100.00;99327.09;5112199;27;20202;-77
2023/09/04 00:45:20;;;;;;;1.80;1.73;;;;;;;21.81;100.00;99317.63;5112702;28;20197;-76
2023/09/04 00:47:47;;;;;;;1.07;1.07;;;;;;;21.91;100.00;99324.63;5117123;27;20218;-75
2023/09/04 00:50:21;;;;;;;1.60;1.60;;;;;;;21.94;100.00;99316.56;5112468;28;20568;-76
2023/09/04 00:52:48;;;;;;;2.00;1.90;;;;;;;21.97;100.00;99316.31;5112256;28;20182;-75
2023/09/04 00:55:15;;;;;;;1.60;1.50;;;;;;;21.96;100.00;99309.47;5113622;27;20201;-76
2023/09/04 00:57:43;;;;;;;2.00;1.90;;;;;;;21.96;100.00;99319.91;5121890;27;20195;-76
2023/09/04 01:00:14;;;;;;;1.67;1.57;;;;;;;21.96;100.00;99314.69;5112441;28;20581;-75
2023/09/04 01:02:41;;;;;;;2.33;2.23;;;;;;;21.94;100.00;99306.13;5111758;27;20240;-75
2023/09/04 01:05:09;;;;;;;1.77;1.67;;;;;;;21.92;100.00;99297.59;5112084;28;20198;-75
2023/09/04 01:07:37;;;;;;;1.97;1.87;;;;;;;21.95;100.00;99292.13;5111814;28;20693;-76
2023/09/04 01:10:07;;;;;;;2.00;1.90;;;;;;;21.99;100.00;99287.50;5111824;28;20733;-76
2023/09/04 01:12:47;;;;;;;1.87;1.77;;;;;;;22.02;100.00;99297.69;5112028;27;20244;-77
2023/09/04 01:15:15;;;;;;;1.40;1.40;;;;;;;22.04;100.00;99294.97;5111885;28;20209;-76
2023/09/04 01:17:44;;;;;;;2.03;1.93;;;;;;;22.04;100.00;99294.97;5113824;27;20223;-80
2023/09/04 01:20:22;;;;;;;1.93;1.83;;;;;;;22.03;100.00;99306.38;5110963;28;20240;-76
2023/09/04 01:22:49;;;;;;;1.83;1.63;;;;;;;21.98;100.00;99307.56;5111149;27;20182;-75
2023/09/04 01:25:16;;;;;;;1.70;1.60;;;;;;;21.95;100.00;99313.03;5109239;28;20194;-76
2023/09/04 01:27:51;;;;;;;4.07;2.03;;;;;;;21.96;100.00;99319.91;5115974;27;20228;-76
2023/09/04 01:30:25;;;;;;;2.33;2.13;;;;;;;21.99;100.00;99324.06;5128480;27;20183;-76
2023/09/04 01:33:01;;;;;;;3.27;2.63;;;;;;;22.01;100.00;99308.25;5111975;28;20190;-76
2023/09/04 01:35:31;;;;;;;2.40;2.20;;;;;;;22.02;100.00;99307.31;5114053;27;20285;-76
2023/09/04 01:37:59;;;;;;;1.70;1.60;;;;;;;22.01;100.00;99309.09;5113852;27;20190;-77
2023/09/04 01:40:26;;;;;;;1.47;1.47;;;;;;;22.01;100.00;99297.81;5112127;28;20191;-76
2023/09/04 01:42:53;;;;;;;2.03;1.93;;;;;;;21.95;100.00;99297.34;5111256;28;20179;-75
2023/09/04 01:45:20;;;;;;;2.70;1.93;;;;;;;21.86;100.00;99298.06;5111471;28;20217;-75
2023/09/04 01:47:47;;;;;;;2.07;1.97;;;;;;;21.83;100.00;99295.69;5110357;28;20221;-75
2023/09/04 01:50:14;;;;;;;2.60;1.57;;;;;;;21.71;100.00;99304.44;5115929;27;20269;-76
2023/09/04 01:52:42;;;;;;;2.10;2.00;;;;;;;21.65;100.00;99299.69;5111306;28;20201;-77
2023/09/04 01:55:09;;;;;;;2.43;2.33;;;;;;;21.67;100.00;99303.03;5112958;27;20220;-76
2023/09/04 01:57:36;;;;;;;2.30;2.20;;;;;;;21.67;100.00;99297.81;5111274;28;20226;-77
2023/09/04 02:00:06;;;;;;;4.77;1.60;;;;;;;21.66;100.00;99285.72;5112218;27;20569;-76
2023/09/04 02:02:32;;;;;;;2.07;1.97;;;;;;;21.61;100.00;99290.47;5123793;27;20290;-75
2023/09/04 02:04:59;;;;;;;1.73;1.63;;;;;;;21.54;100.00;99291.88;5112935;27;20194;-76
2023/09/04 02:07:26;;;;;;;2.03;1.93;;;;;;;21.49;100.00;99288.78;5113378;27;20222;-76
2023/09/04 02:09:54;;;;;;;1.33;1.33;;;;;;;21.50;100.00;99290.44;5131196;27;20188;-76
2023/09/04 02:12:21;;;;;;;2.13;2.03;;;;;;;21.52;100.00;99283.31;5120850;27;20198;-77
2023/09/04 02:14:51;;;;;;;2.13;1.93;;;;;;;21.57;100.00;99276.00;5125542;27;20209;-76
2023/09/04 02:17:18;;;;;;;1.87;1.77;;;;;;;21.59;100.00;99268.88;5120045;27;20229;-76
2023/09/04 02:19:45;;;;;;;1.53;1.47;;;;;;;21.61;100.00;99261.78;5132055;27;20182;-76
2023/09/04 02:22:12;;;;;;;2.30;2.20;;;;;;;21.59;100.00;99255.81;5131531;27;20572;-76
2023/09/04 02:24:38;;;;;;;1.63;1.53;;;;;;;21.57;100.00;99260.34;5131470;27;20890;-76
2023/09/04 02:27:07;;;;;;;2.87;2.17;;;;;;;21.48;100.00;99257.59;5119306;27;20206;-76
2023/09/04 02:29:34;;;;;;;1.67;1.57;;;;;;;21.27;100.00;99252.25;5110560;28;20751;-76
2023/09/04 02:32:01;;;;;;;8.27;1.90;;;;;;;21.18;100.00;99250.34;5110962;28;20191;-77
2023/09/04 02:34:27;;;;;;;3.90;2.00;;;;;;;20.93;100.00;99239.16;5110701;28;20685;-76
2023/09/04 02:36:54;;;;;;;1.50;1.47;;;;;;;20.96;100.00;99238.09;5118723;28;20194;-76
2023/09/04 02:39:21;;;;;;;2.17;1.70;;;;;;;20.84;100.00;99239.00;5110041;28;20194;-77
2023/09/04 02:41:48;;;;;;;1.67;1.63;;;;;;;20.80;100.00;99227.16;5110212;28;20195;-76
2023/09/04 02:44:16;;;;;;;2.33;1.57;;;;;;;20.72;100.00;99235.53;5115775;28;20194;-76
2023/09/04 02:46:43;;;;;;;2.20;2.10;;;;;;;20.69;100.00;99224.50;5110780;28;20198;-76
2023/09/04 02:49:10;;;;;;;2.87;2.67;;;;;;;20.61;100.00;99219.88;5125197;27;20193;-77
2023/09/04 02:51:37;;;;;;;1.70;1.70;;;;;;;20.49;100.00;99212.09;5110451;27;20195;-77
2023/09/04 02:54:04;;;;;;;1.70;1.60;;;;;;;20.47;100.00;99220.06;5110848;28;20184;-76
2023/09/04 02:56:31;;;;;;;2.10;2.00;;;;;;;20.37;100.00;99224.25;5110705;28;20193;-76
2023/09/04 02:58:58;;;;;;;1.10;1.10;;;;;;;20.30;100.00;99220.44;5114243;28;20233;-76
2023/09/04 03:01:27;;;;;;;1.97;1.87;;;;;;;20.30;100.00;99225.66;5120522;27;20200;-77
2023/09/04 03:03:53;;;;;;;2.73;1.90;;;;;;;20.29;100.00;99222.22;5129122;28;20200;-75
2023/09/04 03:06:21;;;;;;;1.27;1.27;;;;;;;20.38;100.00;99231.16;5118372;27;20223;-76
2023/09/04 03:08:47;;;;;;;1.47;1.43;;;;;;;20.42;100.00;99229.97;5110040;28;20229;-75
2023/09/04 03:11:14;;;;;;;1.73;1.63;;;;;;;20.43;100.00;99221.22;5114341;28;20279;-76
2023/09/04 03:13:41;;;;;;;1.53;1.53;;;;;;;20.43;100.00;99218.59;5114301;28;20270;-81
2023/09/04 03:16:08;;;;;;;2.83;1.23;;;;;;;20.37;100.00;99208.66;5114377;28;20247;-76
2023/09/04 03:18:37;;;;;;;1.10;1.10;;;;;;;20.45;100.00;99218.50;5114805;28;20198;-76
2023/09/04 03:21:04;;;;;;;3.07;1.40;;;;;;;20.46;100.00;99212.34;5114163;28;20202;-77
2023/09/04 03:23:32;;;;;;;1.00;1.00;;;;;;;20.51;100.00;99211.06;5114755;28;20190;-75
2023/09/04 03:25:59;;;;;;;1.20;1.20;;;;;;;20.54;100.00;99213.44;5114567;27;20281;-76
2023/09/04 03:28:26;;;;;;;1.37;1.20;;;;;;;20.59;100.00;99219.13;5119730;27;20707;-76
2023/09/04 03:30:53;;;;;;;1.30;1.30;;;;;;;20.62;100.00;99218.06;5114625;27;20573;-76
2023/09/04 03:33:19;;;;;;;0.93;0.93;;;;;;;20.59;100.00;99219.13;5114327;27;20194;-76
2023/09/04 03:35:48;;;;;;;1.60;1.50;;;;;;;20.53;100.00;99219.59;5110400;27;20219;-76
2023/09/04 03:38:16;;;;;;;1.30;1.30;;;;;;;20.46;100.00;99213.16;5120963;27;20193;-76
2023/09/04 03:40:42;;;;;;;1.30;1.30;;;;;;;20.45;100.00;99216.75;5115443;27;20208;-76
2023/09/04 03:43:09;;;;;;;0.90;0.90;;;;;;;20.45;100.00;99218.50;5124507;27;20189;-76
2023/09/04 03:45:36;;;;;;;1.57;1.50;;;;;;;20.49;100.00;99223.34;5121661;27;20220;-75
2023/09/04 03:48:04;;;;;;;1.37;1.37;;;;;;;20.47;100.00;99225.25;5114537;27;20304;-74
2023/09/04 03:50:32;;;;;;;1.43;1.37;;;;;;;20.49;100.00;99223.34;5113253;28;20202;-74
2023/09/04 03:53:01;;;;;;;1.60;1.60;;;;;;;20.45;100.00;99226.31;5110794;28;20679;-75
2023/09/04 03:55:28;;;;;;;0.87;0.87;;;;;;;20.43;100.00;99229.03;5112933;27;20676;-74
2023/09/04 03:57:54;;;;;;;1.47;1.40;;;;;;;20.35;100.00;99226.16;5113299;28;20224;-74
2023/09/04 04:00:22;;;;;;;1.20;1.20;;;;;;;20.35;100.00;99227.00;5113773;28;20289;-74
2023/09/04 04:02:51;;;;;;;1.17;1.17;;;;;;;20.33;100.00;99230.63;5113502;28;20193;-74
2023/09/04 04:05:19;;;;;;;1.80;1.13;;;;;;;20.30;100.00;99236.91;5128125;27;20183;-74
2023/09/04 04:07:46;;;;;;;1.43;1.43;;;;;;;20.29;100.00;99226.63;5124922;27;20290;-74
2023/09/04 04:10:14;;;;;;;1.50;1.50;;;;;;;20.23;100.00;99232.19;5112612;28;20200;-76
2023/09/04 04:12:41;;;;;;;4.70;1.07;;;;;;;20.21;100.00;99239.31;5113465;28;20696;-74
2023/09/04 04:15:11;;;;;;;1.00;1.00;;;;;;;20.12;100.00;99237.38;5113385;27;20770;-73
2023/09/04 04:17:39;;;;;;;1.50;1.40;;;;;;;20.10;100.00;99247.03;5112988;28;20212;-73
2023/09/04 04:20:10;;;;;;;1.23;1.23;;;;;;;20.06;100.00;99251.66;5113302;28;20192;-73
2023/09/04 04:22:37;;;;;;;1.50;1.20;;;;;;;19.96;100.00;99255.00;5113324;27;20283;-73
2023/09/04 04:25:04;;;;;;;5.63;1.50;;;;;;;19.85;100.00;99253.16;5125810;27;20264;-72
2023/09/04 04:27:33;;;;;;;1.67;1.57;;;;;;;19.83;100.00;99262.84;5112722;27;20204;-74
2023/09/04 04:30:00;;;;;;;1.33;1.33;;;;;;;19.78;100.00;99268.38;5115953;27;20203;-73
2023/09/04 04:32:27;;;;;;;1.73;1.67;;;;;;;19.79;100.00;99270.03;5114875;27;20193;-73
2023/09/04 04:34:54;;;;;;;1.67;1.57;;;;;;;19.88;100.00;99277.19;5110536;28;20191;-72
2023/09/04 04:37:21;;;;;;;1.60;1.60;;;;;;;19.99;100.00;99286.84;5119635;27;20187;-74
2023/09/04 04:39:47;;;;;;;2.73;1.70;;;;;;;20.06;100.00;99297.66;5109934;28;20200;-73
2023/09/04 04:42:15;;;;;;;1.80;1.70;;;;;;;20.17;100.00;99300.31;5112448;28;20210;-74
2023/09/04 04:44:43;;;;;;;1.43;1.40;;;;;;;20.28;100.00;99306.47;5110385;27;20259;-72
2023/09/04 04:47:10;;;;;;;1.60;1.53;;;;;;;20.40;100.00;99309.97;5111921;28;20278;-74
2023/09/04 04:49:37;;;;;;;1.57;1.47;;;;;;;20.47;100.00;99312.97;5114720;27;20241;-74
2023/09/04 04:52:05;;;;;;;1.20;1.10;;;;;;;20.57;100.00;99308.75;5111047;28;20198;-74
2023/09/04 04:54:32;;;;;;;1.87;1.77;;;;;;;20.61;100.00;99320.63;5112224;27;20553;-76
2023/09/04 04:56:59;;;;;;;1.23;1.23;;;;;;;20.66;100.00;99324.56;5115144;27;20191;-74
2023/09/04 04:59:26;;;;;;;1.37;1.37;;;;;;;20.69;100.00;99328.69;5111903;27;20263;-74
2023/09/04 05:01:56;;;;;;;1.47;1.47;;;;;;;20.69;100.00;99329.53;5110794;28;20206;-73
2023/09/04 05:04:22;;;;;;;1.30;1.30;;;;;;;20.70;100.00;99336.41;5111581;28;20202;-73
2023/09/04 05:06:50;;;;;;;1.10;1.00;;;;;;;20.66;100.00;99340.19;5114776;27;20194;-73
2023/09/04 05:09:17;;;;;;;1.47;1.47;;;;;;;20.57;100.00;99335.63;5109226;27;20244;-74
2023/09/04 05:11:44;;;;;;;2.23;2.13;;;;;;;20.50;100.00;99338.78;5110490;28;20193;-74
2023/09/04 05:14:11;;;;;;;1.60;1.50;;;;;;;20.45;100.00;99341.72;5110747;27;20202;-74
2023/09/04 05:16:38;;;;;;;1.90;1.23;;;;;;;20.46;100.00;99338.16;5115935;27;20186;-74
2023/09/04 05:19:06;;;;;;;1.50;1.50;;;;;;;20.49;100.00;99332.75;5112519;27;20293;-74
2023/09/04 05:21:33;;;;;;;1.37;1.37;;;;;;;20.55;100.00;99337.50;5111103;27;20208;-75
2023/09/04 05:24:00;;;;;;;1.60;1.50;;;;;;;20.61;100.00;99331.88;5112319;27;20185;-76
2023/09/04 05:26:27;;;;;;;1.63;1.53;;;;;;;20.59;100.00;99323.31;5114715;27;20573;-74
2023/09/04 05:32:16;;;;;;;1.43;1.37;;;;;;;20.57;100.00;99324.38;5108357;28;20204;-74
2023/09/04 05:34:44;;;;;;;1.63;1.63;;;;;;;20.40;100.00;99322.97;5104904;28;20234;-75
2023/09/04 05:37:13;;;;;;;0.90;0.90;;;;;;;20.31;100.00;99313.22;5114495;27;20194;-74
2023/09/04 05:39:40;;;;;;;1.30;1.20;;;;;;;20.20;100.00;99302.72;5109813;28;20194;-77
2023/09/04 05:42:07;;;;;;;3.93;1.43;;;;;;;20.25;100.00;99324.91;5113118;27;20192;-75
2023/09/04 05:44:33;;;;;;;0.90;0.90;;;;;;;20.07;100.00;99294.94;5108339;28;20204;-74
2023/09/04 05:47:01;;;;;;;1.20;1.20;;;;;;;20.17;100.00;99315.94;5113215;27;20231;-74
2023/09/04 05:49:28;;;;;;;0.90;0.90;;;;;;;20.15;100.00;99316.06;5110397;28;20215;-74
2023/09/04 05:51:56;;;;;;;1.40;1.30;;;;;;;20.21;100.00;99333.00;5110877;28;20198;-74
2023/09/04 05:54:24;;;;;;;1.37;1.27;;;;;;;20.24;100.00;99323.22;5109648;27;20233;-74
2023/09/04 05:56:51;;;;;;;2.33;1.70;;;;;;;20.19;100.00;99325.34;5110824;28;20197;-75
2023/09/04 05:59:18;;;;;;;1.50;1.43;;;;;;;20.09;100.00;99333.88;5111504;27;20188;-74
2023/09/04 06:01:45;;;;;;;1.30;1.30;;;;;;;19.88;100.00;99336.19;5111015;28;20204;-74
2023/09/04 06:04:12;;;;;;;1.43;1.43;;;;;;;19.90;100.00;99329.94;5112143;27;20205;-74
2023/09/04 06:06:39;;;;;;;1.80;1.70;;;;;;;19.89;100.00;99338.72;5110235;28;20202;-74
2023/09/04 06:09:08;;;;;;;3.97;1.83;;;;;;;19.97;100.00;99339.94;5110194;28;20218;-75
2023/09/04 06:11:35;;;;;;;1.07;1.07;;;;;;;19.96;100.00;99339.13;5117154;27;20270;-74
2023/09/04 06:14:02;;;;;;;1.90;1.80;;;;;;;20.04;100.00;99342.00;5109901;28;20259;-76
2023/09/04 06:16:29;;;;;;;1.33;1.33;;;;;;;20.15;100.00;99343.84;5114807;27;20196;-78
2023/09/04 06:18:56;;;;;;;1.43;1.43;;;;;;;20.27;100.00;99343.84;5119115;27;20284;-75
2023/09/04 13:13:43;;;;;;;2.40;2.30;;;;;;;18.33;100.00;99350.78;5124678;27;20586;-63
2023/09/04 13:16:10;;;;;;;2.67;2.50;;;;;;;18.35;100.00;99352.34;5127270;27;20202;-64
2023/09/04 13:18:36;;;;;;;2.77;2.67;;;;;;;18.32;100.00;99355.13;5126582;27;20244;-64
2023/09/04 13:21:03;;;;;;;1.67;1.57;;;;;;;18.32;100.00;99354.31;5127584;28;20669;-64
2023/09/04 13:23:30;;;;;;;2.43;2.33;;;;;;;18.34;100.00;99347.28;5126886;28;20207;-64
2023/09/04 13:25:56;;;;;;;2.00;1.90;;;;;;;18.31;100.00;99348.31;5127352;28;20199;-64
2023/09/04 13:28:23;;;;;;;2.40;2.30;;;;;;;18.38;100.00;99349.56;5127480;28;20199;-64
2023/09/04 13:30:51;;;;;;;2.43;2.23;;;;;;;18.39;100.00;99345.22;5127765;27;20201;-64
2023/09/04 13:33:18;;;;;;;2.40;2.30;;;;;;;18.39;100.00;99342.63;5127541;28;20726;-64
2023/09/04 13:35:45;;;;;;;3.13;2.93;;;;;;;18.44;100.00;99353.56;5127594;27;20206;-64
2023/09/04 13:38:11;;;;;;;3.00;2.80;;;;;;;18.46;100.00;99349.09;5125724;28;20213;-64
2023/09/04 13:40:39;;;;;;;2.93;2.77;;;;;;;18.40;100.00;99341.69;5127070;27;20256;-63
2023/09/04 13:43:06;;;;;;;2.93;2.63;;;;;;;18.29;100.00;99344.94;5124633;28;20226;-63
2023/09/04 13:45:33;;;;;;;2.57;2.47;;;;;;;18.29;100.00;99342.34;5127031;28;20248;-64
2023/09/04 13:48:01;;;;;;;2.30;2.20;;;;;;;18.29;100.00;99338.91;5126610;27;20328;-64
2023/09/04 13:50:27;;;;;;;2.20;2.10;;;;;;;18.34;100.00;99344.69;5124680;28;20198;-64
2023/09/04 13:52:54;;;;;;;2.37;2.27;;;;;;;18.38;100.00;99353.94;5125710;28;20207;-64
2023/09/04 13:55:21;;;;;;;1.63;1.53;;;;;;;18.43;100.00;99351.03;5126326;28;20207;-65
2023/09/04 13:57:48;;;;;;;2.10;2.00;;;;;;;18.48;100.00;99355.00;5128220;27;20194;-65
2023/09/04 14:00:16;;;;;;;1.67;1.67;;;;;;;18.53;100.00;99350.41;5128336;27;20626;-66
2023/09/04 14:02:43;;;;;;;2.00;1.87;;;;;;;18.46;100.00;99337.88;5127893;27;20210;-66
2023/09/04 14:05:12;;;;;;;4.73;1.90;;;;;;;18.58;100.00;99337.16;5128355;27;20233;-65
2023/09/04 14:07:41;;;;;;;3.80;3.10;;;;;;;18.59;100.00;99331.84;5128104;27;20192;-66
2023/09/04 14:10:08;;;;;;;2.60;2.03;;;;;;;18.65;100.00;99336.63;5128382;27;20206;-65
2023/09/04 14:12:35;;;;;;;1.57;1.50;;;;;;;18.59;100.00;99342.22;5126128;27;20222;-65
2023/09/04 14:15:02;;;;;;;1.80;1.70;;;;;;;18.66;100.00;99337.47;5114089;28;20195;-65
2023/09/04 14:17:29;;;;;;;2.43;2.33;;;;;;;18.58;100.00;99330.16;5113269;28;20199;-65
2023/09/04 14:19:56;;;;;;;1.70;1.70;;;;;;;18.61;100.00;99331.75;5113594;28;20199;-66
2023/09/04 14:22:24;;;;;;;1.97;1.87;;;;;;;18.56;100.00;99337.22;5114041;28;20218;-65
2023/09/04 14:24:51;;;;;;;2.37;2.13;;;;;;;18.46;100.00;99325.72;5113501;28;20256;-66
2023/09/04 14:27:18;;;;;;;2.37;2.20;;;;;;;18.52;100.00;99316.75;5113606;28;20204;-66
2023/09/04 14:29:45;;;;;;;1.53;1.53;;;;;;;18.56;100.00;99316.47;5114027;28;20191;-66
2023/09/04 14:32:11;;;;;;;2.43;2.33;;;;;;;18.52;100.00;99304.59;5112776;28;20283;-66
2023/09/04 14:34:38;;;;;;;2.63;2.07;;;;;;;18.59;100.00;99311.06;5113382;28;20203;-66
2023/09/04 14:37:05;;;;;;;1.47;1.47;;;;;;;18.69;100.00;99314.75;5112030;28;20199;-66
2023/09/04 14:39:33;;;;;;;1.13;1.13;;;;;;;18.73;100.00;99321.41;5111326;28;20204;-66
2023/09/04 14:42:00;;;;;;;1.53;1.50;;;;;;;18.70;100.00;99303.44;5108265;28;20224;-66
2023/09/04 14:44:26;;;;;;;2.07;1.97;;;;;;;18.81;100.00;99323.50;5108759;28;20207;-66
2023/09/04 14:46:53;;;;;;;2.10;2.00;;;;;;;18.83;100.00;99319.88;5111989;28;20257;-66
2023/09/04 14:49:20;;;;;;;1.90;1.90;;;;;;;18.77;100.00;99319.44;5110755;28;20252;-66
2023/09/04 14:51:47;;;;;;;1.13;1.07;;;;;;;18.57;100.00;99288.75;5109494;28;20247;-66
2023/09/04 14:54:13;;;;;;;1.90;1.80;;;;;;;18.69;100.00;99317.34;5106752;28;20231;-66
2023/09/04 14:56:41;;;;;;;1.70;1.60;;;;;;;18.69;100.00;99317.34;5111576;28;20253;-66
2023/09/04 14:59:08;;;;;;;1.53;1.53;;;;;;;18.66;100.00;99307.16;5110872;28;20650;-66
2023/09/04 15:01:35;;;;;;;1.30;1.30;;;;;;;18.59;100.00;99305.88;5094152;28;20207;-66
2023/09/04 15:04:02;;;;;;;2.07;1.97;;;;;;;18.63;100.00;99312.53;5111021;28;20203;-66
2023/09/04 15:06:28;;;;;;;1.60;1.50;;;;;;;18.66;100.00;99311.50;5111073;28;21132;-66
2023/09/04 15:08:55;;;;;;;1.13;1.13;;;;;;;18.63;100.00;99322.94;5109582;28;20196;-66
2023/09/04 15:11:22;;;;;;;2.07;1.97;;;;;;;18.57;100.00;99315.53;5110098;28;20240;-66
2023/09/04 15:13:50;;;;;;;1.33;1.33;;;;;;;18.64;100.00;99318.56;5109989;28;20207;-66
2023/09/04 15:16:17;;;;;;;1.57;1.57;;;;;;;18.64;100.00;99313.38;5109667;27;20203;-66
2023/09/04 15:18:44;;;;;;;2.10;1.97;;;;;;;18.69;100.00;99311.31;5110122;28;20206;-66
2023/09/04 15:21:11;;;;;;;1.67;1.57;;;;;;;18.65;100.00;99315.88;5108508;28;20197;-66
2023/09/04 15:23:37;;;;;;;1.50;1.50;;;;;;;18.67;100.00;99314.03;5108492;28;20214;-66
2023/09/04 15:26:04;;;;;;;1.43;1.40;;;;;;;18.68;100.00;99315.66;5109754;28;20203;-66
2023/09/04 15:28:31;;;;;;;1.23;1.23;;;;;;;18.72;100.00;99327.53;5109182;28;20277;-66
2023/09/04 15:30:59;;;;;;;1.80;1.70;;;;;;;18.78;100.00;99316.75;5109857;28;20204;-66
2023/09/04 15:33:28;;;;;;;1.20;1.20;;;;;;;18.74;100.00;99310.06;5109398;28;20202;-66
2023/09/04 15:35:55;;;;;;;1.67;1.57;;;;;;;18.73;100.00;99318.81;5109847;28;20732;-66
2023/09/04 15:38:24;;;;;;;1.57;1.47;;;;;;;18.81;100.00;99326.09;5110067;28;20654;-66
2023/09/04 15:40:51;;;;;;;1.73;1.63;;;;;;;18.74;100.00;99315.25;5110877;28;20198;-66
2023/09/04 15:43:18;;;;;;;1.53;1.43;;;;;;;18.79;100.00;99310.63;5108527;28;20782;-66
2023/09/04 15:45:44;;;;;;;1.67;1.57;;;;;;;18.80;100.00;99314.88;5107228;28;20211;-66
2023/09/04 15:48:14;;;;;;;1.57;1.57;;;;;;;18.75;100.00;99296.16;5106867;28;20199;-66
2023/09/04 15:50:40;;;;;;;1.73;1.73;;;;;;;18.87;100.00;99305.75;5108964;28;20230;-66
2023/09/04 15:53:07;;;;;;;1.77;1.77;;;;;;;18.83;100.00;99306.91;5109564;28;20199;-66
2023/09/04 15:55:34;;;;;;;1.93;1.90;;;;;;;18.77;100.00;99309.88;5109450;28;20262;-66
2023/09/04 15:58:01;;;;;;;1.20;1.20;;;;;;;18.76;100.00;99310.81;5107742;28;20203;-66
2023/09/04 16:00:28;;;;;;;2.00;1.90;;;;;;;18.69;100.00;99317.34;5109002;28;20250;-65
2023/09/04 16:02:55;;;;;;;1.20;1.20;;;;;;;18.65;100.00;99315.88;5109363;28;20298;-66
2023/09/04 16:05:23;;;;;;;1.70;1.60;;;;;;;18.63;100.00;99316.91;5109126;28;20474;-66
2023/09/04 16:07:50;;;;;;;1.63;1.63;;;;;;;18.61;100.00;99321.38;5110070;28;20198;-66
2023/09/04 16:10:17;;;;;;;1.87;1.80;;;;;;;18.59;100.00;99326.66;5110650;28;20206;-66
2023/09/04 16:12:44;;;;;;;2.00;1.73;;;;;;;18.48;100.00;99325.66;5110131;28;20223;-66
2023/09/04 16:15:12;;;;;;;1.57;1.47;;;;;;;18.52;100.00;99329.72;5108801;28;20206;-66
2023/09/04 16:17:39;;;;;;;2.27;2.03;;;;;;;18.48;100.00;99328.25;5105746;28;20290;-66
2023/09/04 16:20:08;;;;;;;1.97;1.83;;;;;;;18.50;100.00;99332.44;5107415;28;20275;-66
2023/09/04 16:22:36;;;;;;;1.97;1.90;;;;;;;18.46;100.00;99330.91;5107177;28;20241;-66
2023/09/04 16:25:03;;;;;;;1.50;1.40;;;;;;;18.49;100.00;99343.69;5108542;28;20239;-66
2023/09/04 16:27:29;;;;;;;1.97;1.87;;;;;;;18.44;100.00;99339.75;5109181;28;20194;-66
2023/09/04 16:29:56;;;;;;;1.93;1.83;;;;;;;18.46;100.00;99333.50;5108734;28;20578;-66
2023/09/04 16:32:23;;;;;;;1.77;1.40;;;;;;;18.43;100.00;99333.72;5105729;28;20252;-66
2023/09/04 16:34:50;;;;;;;2.00;1.93;;;;;;;18.30;100.00;99317.25;5109221;28;20569;-66
2023/09/04 16:37:20;;;;;;;1.47;1.43;;;;;;;18.34;100.00;99342.09;5108659;28;20203;-66
2023/09/04 16:39:48;;;;;;;1.70;1.60;;;;;;;18.32;100.00;99349.09;5108975;28;20199;-66
2023/09/04 16:42:15;;;;;;;1.17;1.17;;;;;;;18.38;100.00;99353.94;5107546;28;20215;-66
2023/09/04 16:44:42;;;;;;;1.43;1.20;;;;;;;18.39;100.00;99358.19;5106595;28;20202;-66
2023/09/04 16:47:09;;;;;;;1.60;1.60;;;;;;;18.41;100.00;99358.09;5108686;28;20555;-67
2023/09/04 16:49:35;;;;;;;1.47;1.47;;;;;;;18.38;100.00;99349.56;5108587;28;20198;-66
2023/09/04 16:52:02;;;;;;;1.33;1.33;;;;;;;18.41;100.00;99352.91;5109724;28;20211;-66
2023/09/04 16:54:29;;;;;;;1.40;1.40;;;;;;;18.42;100.00;99360.59;5106779;28;20248;-66
2023/09/04 16:56:58;;;;;;;1.33;1.30;;;;;;;18.43;100.00;99358.81;5109391;28;20214;-66
2023/09/04 16:59:25;;;;;;;1.30;1.10;;;;;;;18.40;100.00;99346.88;5108848;28;21330;-66
2023/09/04 17:01:51;;;;;;;1.07;1.07;;;;;;;18.44;100.00;99371.72;5107731;28;20256;-66
2023/09/04 17:04:18;;;;;;;1.07;1.07;;;;;;;18.35;100.00;99359.34;5109408;28;20228;-67
2023/09/04 17:06:45;;;;;;;1.17;1.17;;;;;;;18.45;100.00;99375.97;5108923;28;20198;-66
2023/09/04 17:09:13;;;;;;;1.37;1.37;;;;;;;18.45;100.00;99381.16;5110151;28;20205;-66
2023/09/04 17:11:39;;;;;;;1.13;1.13;;;;;;;18.46;100.00;99380.25;5107513;28;20682;-66
2023/09/04 17:14:08;;;;;;;1.27;1.20;;;;;;;18.19;100.00;99343.06;5108848;28;20275;-66
2023/09/04 17:16:35;;;;;;;0.90;0.90;;;;;;;18.43;100.00;99395.16;5107225;28;20206;-66
2023/09/04 17:19:02;;;;;;;1.57;1.17;;;;;;;18.41;100.00;99390.09;5106885;28;20206;-66
2023/09/04 17:21:29;;;;;;;1.50;1.43;;;;;;;18.41;100.00;99384.06;5108284;28;20200;-66
2023/09/04 17:23:55;;;;;;;1.10;1.10;;;;;;;18.38;100.00;99386.84;5109223;28;20736;-66
2023/09/04 17:26:22;;;;;;;1.20;1.20;;;;;;;18.29;100.00;99383.03;5109389;28;20210;-66
2023/09/04 17:28:49;;;;;;;0.90;0.90;;;;;;;18.24;100.00;99382.50;5109597;28;20566;-66
2023/09/04 17:31:17;;;;;;;1.17;1.17;;;;;;;18.22;100.00;99384.38;5108739;28;20264;-66
2023/09/04 17:33:44;;;;;;;1.20;1.20;;;;;;;18.19;100.00;99380.19;5109354;28;20263;-66
2023/09/04 17:36:10;;;;;;;1.00;1.00;;;;;;;18.09;100.00;99378.28;5109371;28;20204;-67
2023/09/04 17:38:37;;;;;;;1.20;1.17;;;;;;;18.06;100.00;99381.06;5109497;28;20206;-66
2023/09/04 17:41:06;;;;;;;0.87;0.87;;;;;;;18.04;100.00;99380.28;5108566;28;20203;-66
2023/09/04 17:43:33;;;;;;;1.17;1.17;;;;;;;17.94;100.00;99380.00;5108636;28;20276;-66
2023/09/04 17:45:59;;;;;;;0.93;0.93;;;;;;;18.07;100.00;99390.47;5109267;28;20267;-66
2023/09/04 17:48:28;;;;;;;1.20;1.07;;;;;;;18.13;100.00;99401.31;5110354;28;20275;-66
2023/09/04 17:50:54;;;;;;;0.93;0.93;;;;;;;18.18;100.00;99398.44;5113112;28;20252;-66
2023/09/04 17:53:21;;;;;;;0.90;0.90;;;;;;;18.17;100.00;99399.38;5113043;28;20206;-66
2023/09/04 17:55:48;;;;;;;0.80;0.80;;;;;;;18.19;100.00;99400.94;5113128;28;20256;-66
2023/09/04 17:58:15;;;;;;;1.20;1.10;;;;;;;18.20;100.00;99402.63;5110373;28;20228;-66
2023/09/04 18:00:41;;;;;;;3.43;1.57;;;;;;;18.20;100.00;99413.00;5113147;28;20327;-66
2023/09/04 18:03:08;;;;;;;1.20;1.10;;;;;;;18.22;100.00;99410.31;5111956;28;20590;-66
2023/09/04 18:05:37;;;;;;;0.73;0.73;;;;;;;18.14;100.00;99412.53;5112943;28;20196;-66
2023/09/04 18:08:05;;;;;;;1.07;1.07;;;;;;;18.19;100.00;99411.31;5111890;28;20586;-66
2023/09/04 18:10:32;;;;;;;1.43;1.33;;;;;;;18.19;100.00;99410.50;5112658;28;20232;-66
2023/09/04 18:12:58;;;;;;;1.10;1.10;;;;;;;18.14;100.00;99412.53;5109545;27;20226;-66
2023/09/04 18:15:25;;;;;;;1.13;1.13;;;;;;;18.12;100.00;99417.84;5112490;28;20663;-66
2023/09/04 18:17:52;;;;;;;3.93;1.10;;;;;;;18.09;100.00;99417.19;5112819;28;20199;-66
2023/09/04 18:20:20;;;;;;;1.57;1.30;;;;;;;18.08;100.00;99418.09;5111082;28;20643;-66